sensor_id;sensor_type;location;lat;lon;timestamp;temperature;humidity
38866;DHT22;62686;48.984;8.394;2023-10-31T00:02:21;11.70;99.90
38866;DHT22;62686;48.984;8.394;2023-10-31T00:04:49;11.60;99.90
38866;DHT22;62686;48.984;8.394;2023-10-31T00:07:17;11.60;99.90
38866;DHT22;62686;48.984;8.394;2023-10-31T00:09:46;11.50;99.90
38866;DHT22;62686;48.984;8.394;2023-10-31T00:12:14;11.40;99.90
38866;DHT22;62686;48.984;8.394;2023-10-31T00:14:44;11.40;99.90
38866;DHT22;62686;48.984;8.394;2023-10-31T00:17:12;11.30;99.90
38866;DHT22;62686;48.984;8.394;2023-10-31T00:19:41;11.20;99.90
38866;DHT22;62686;48.984;8.394;2023-10-31T00:22:11;11.20;99.90
38866;DHT22;62686;48.984;8.394;2023-10-31T00:24:40;11.20;99.90
38866;DHT22;62686;48.984;8.394;2023-10-31T00:27:08;11.20;99.90
38866;DHT22;62686;48.984;8.394;2023-10-31T00:29:42;11.10;99.90
38866;DHT22;62686;48.984;8.394;2023-10-31T00:32:11;11.10;99.90
38866;DHT22;62686;48.984;8.394;2023-10-31T00:34:42;11.00;99.90
38866;DHT22;62686;48.984;8.394;2023-10-31T00:37:11;11.00;99.90
38866;DHT22;62686;48.984;8.394;2023-10-31T00:39:39;10.90;99.90
38866;DHT22;62686;48.984;8.394;2023-10-31T00:42:11;10.90;99.90
38866;DHT22;62686;48.984;8.394;2023-10-31T00:44:40;10.80;99.90
38866;DHT22;62686;48.984;8.394;2023-10-31T00:47:10;10.80;99.90
38866;DHT22;62686;48.984;8.394;2023-10-31T00:49:38;10.70;99.90
38866;DHT22;62686;48.984;8.394;2023-10-31T00:52:07;10.60;99.90
38866;DHT22;62686;48.984;8.394;2023-10-31T00:54:36;10.60;99.90
38866;DHT22;62686;48.984;8.394;2023-10-31T00:57:06;10.60;99.90
38866;DHT22;62686;48.984;8.394;2023-10-31T00:59:35;10.60;99.90
38866;DHT22;62686;48.984;8.394;2023-10-31T01:02:04;10.60;99.90
38866;DHT22;62686;48.984;8.394;2023-10-31T01:04:36;10.60;99.90
38866;DHT22;62686;48.984;8.394;2023-10-31T01:07:04;10.60;99.90
38866;DHT22;62686;48.984;8.394;2023-10-31T01:09:33;10.70;99.90
38866;DHT22;62686;48.984;8.394;2023-10-31T01:12:01;10.70;99.90
38866;DHT22;62686;48.984;8.394;2023-10-31T01:14:30;10.70;99.90
38866;DHT22;62686;48.984;8.394;2023-10-31T01:16:58;10.60;99.90
38866;DHT22;62686;48.984;8.394;2023-10-31T01:19:27;10.70;99.90
38866;DHT22;62686;48.984;8.394;2023-10-31T01:21:57;10.70;99.90
38866;DHT22;62686;48.984;8.394;2023-10-31T01:24:25;10.70;99.90
38866;DHT22;62686;48.984;8.394;2023-10-31T01:26:54;10.70;99.90
38866;DHT22;62686;48.984;8.394;2023-10-31T01:29:22;10.60;99.90
38866;DHT22;62686;48.984;8.394;2023-10-31T01:31:57;10.60;99.90
38866;DHT22;62686;48.984;8.394;2023-10-31T01:34:25;10.60;99.90
38866;DHT22;62686;48.984;8.394;2023-10-31T01:36:53;10.60;99.90
38866;DHT22;62686;48.984;8.394;2023-10-31T01:39:23;10.60;99.90
38866;DHT22;62686;48.984;8.394;2023-10-31T01:41:52;10.60;99.90
38866;DHT22;62686;48.984;8.394;2023-10-31T01:44:21;10.50;99.90
38866;DHT22;62686;48.984;8.394;2023-10-31T01:46:50;10.50;99.90
38866;DHT22;62686;48.984;8.394;2023-10-31T01:49:18;10.40;99.90
38866;DHT22;62686;48.984;8.394;2023-10-31T01:51:47;10.20;99.90
38866;DHT22;62686;48.984;8.394;2023-10-31T01:54:16;10.10;99.90
38866;DHT22;62686;48.984;8.394;2023-10-31T01:56:48;9.90;99.90
38866;DHT22;62686;48.984;8.394;2023-10-31T01:59:20;9.80;99.90
38866;DHT22;62686;48.984;8.394;2023-10-31T02:01:49;9.70;99.90
38866;DHT22;62686;48.984;8.394;2023-10-31T02:04:18;9.70;99.90
38866;DHT22;62686;48.984;8.394;2023-10-31T02:06:46;9.60;99.90
38866;DHT22;62686;48.984;8.394;2023-10-31T02:09:14;9.60;99.90
38866;DHT22;62686;48.984;8.394;2023-10-31T02:11:43;9.50;99.90
38866;DHT22;62686;48.984;8.394;2023-10-31T02:14:13;9.40;99.90
38866;DHT22;62686;48.984;8.394;2023-10-31T02:16:41;9.40;99.90
38866;DHT22;62686;48.984;8.394;2023-10-31T02:19:11;9.40;99.90
38866;DHT22;62686;48.984;8.394;2023-10-31T02:21:42;9.30;99.90
38866;DHT22;62686;48.984;8.394;2023-10-31T02:24:13;9.40;99.90
38866;DHT22;62686;48.984;8.394;2023-10-31T02:26:42;9.50;99.90
38866;DHT22;62686;48.984;8.394;2023-10-31T02:29:10;9.50;99.90
38866;DHT22;62686;48.984;8.394;2023-10-31T02:31:39;9.60;99.90
38866;DHT22;62686;48.984;8.394;2023-10-31T02:34:08;9.70;99.90
38866;DHT22;62686;48.984;8.394;2023-10-31T02:36:36;9.90;99.90
38866;DHT22;62686;48.984;8.394;2023-10-31T02:39:06;10.00;99.90
38866;DHT22;62686;48.984;8.394;2023-10-31T02:41:35;10.10;99.90
38866;DHT22;62686;48.984;8.394;2023-10-31T02:44:07;10.20;99.90
38866;DHT22;62686;48.984;8.394;2023-10-31T02:46:38;10.30;99.90
38866;DHT22;62686;48.984;8.394;2023-10-31T02:49:06;10.30;99.90
38866;DHT22;62686;48.984;8.394;2023-10-31T02:51:36;10.30;99.90
38866;DHT22;62686;48.984;8.394;2023-10-31T02:54:07;10.30;99.90
38866;DHT22;62686;48.984;8.394;2023-10-31T02:56:38;10.30;99.90
38866;DHT22;62686;48.984;8.394;2023-10-31T02:59:08;10.30;99.90
38866;DHT22;62686;48.984;8.394;2023-10-31T03:01:37;10.30;99.90
38866;DHT22;62686;48.984;8.394;2023-10-31T03:04:06;10.40;99.90
38866;DHT22;62686;48.984;8.394;2023-10-31T03:06:34;10.50;99.90
38866;DHT22;62686;48.984;8.394;2023-10-31T03:09:03;10.50;99.90
38866;DHT22;62686;48.984;8.394;2023-10-31T03:11:33;10.50;99.90
38866;DHT22;62686;48.984;8.394;2023-10-31T03:14:01;10.60;99.90
38866;DHT22;62686;48.984;8.394;2023-10-31T03:16:29;10.60;99.90
38866;DHT22;62686;48.984;8.394;2023-10-31T03:18:58;10.60;99.90
38866;DHT22;62686;48.984;8.394;2023-10-31T03:21:27;10.60;99.90
38866;DHT22;62686;48.984;8.394;2023-10-31T03:23:55;10.50;99.90
38866;DHT22;62686;48.984;8.394;2023-10-31T03:26:26;10.60;99.90
38866;DHT22;62686;48.984;8.394;2023-10-31T03:28:56;10.60;99.90
38866;DHT22;62686;48.984;8.394;2023-10-31T03:31:25;10.60;99.90
38866;DHT22;62686;48.984;8.394;2023-10-31T03:33:53;10.60;99.90
38866;DHT22;62686;48.984;8.394;2023-10-31T03:36:22;10.70;99.90
38866;DHT22;62686;48.984;8.394;2023-10-31T03:38:50;10.70;99.90
38866;DHT22;62686;48.984;8.394;2023-10-31T03:41:19;10.70;99.90
38866;DHT22;62686;48.984;8.394;2023-10-31T03:43:47;10.70;99.90
38866;DHT22;62686;48.984;8.394;2023-10-31T03:46:17;10.60;99.90
38866;DHT22;62686;48.984;8.394;2023-10-31T03:48:45;10.60;99.90
38866;DHT22;62686;48.984;8.394;2023-10-31T03:51:14;10.60;99.90
38866;DHT22;62686;48.984;8.394;2023-10-31T03:53:42;10.60;99.90
38866;DHT22;62686;48.984;8.394;2023-10-31T03:56:10;10.60;99.90
38866;DHT22;62686;48.984;8.394;2023-10-31T03:58:40;10.60;99.90
38866;DHT22;62686;48.984;8.394;2023-10-31T04:01:09;10.50;99.90
38866;DHT22;62686;48.984;8.394;2023-10-31T04:03:39;10.50;99.90
38866;DHT22;62686;48.984;8.394;2023-10-31T04:06:07;10.50;99.90
38866;DHT22;62686;48.984;8.394;2023-10-31T04:08:35;10.50;99.90
38866;DHT22;62686;48.984;8.394;2023-10-31T04:11:04;10.50;99.90
38866;DHT22;62686;48.984;8.394;2023-10-31T04:13:32;10.50;99.90
38866;DHT22;62686;48.984;8.394;2023-10-31T04:16:01;10.50;99.90
38866;DHT22;62686;48.984;8.394;2023-10-31T04:18:29;10.50;99.90
38866;DHT22;62686;48.984;8.394;2023-10-31T04:20:59;10.50;99.90
38866;DHT22;62686;48.984;8.394;2023-10-31T04:23:28;10.50;99.90
38866;DHT22;62686;48.984;8.394;2023-10-31T04:25:56;10.60;99.90
38866;DHT22;62686;48.984;8.394;2023-10-31T04:28:24;10.60;99.90
38866;DHT22;62686;48.984;8.394;2023-10-31T04:30:53;10.60;99.90
38866;DHT22;62686;48.984;8.394;2023-10-31T04:33:21;10.70;99.90
38866;DHT22;62686;48.984;8.394;2023-10-31T04:35:49;10.70;99.90
38866;DHT22;62686;48.984;8.394;2023-10-31T04:38:19;10.80;99.90
38866;DHT22;62686;48.984;8.394;2023-10-31T04:40:47;10.80;99.90
38866;DHT22;62686;48.984;8.394;2023-10-31T04:43:16;10.80;99.90
38866;DHT22;62686;48.984;8.394;2023-10-31T04:45:44;10.70;99.90
38866;DHT22;62686;48.984;8.394;2023-10-31T04:48:13;10.70;99.90
38866;DHT22;62686;48.984;8.394;2023-10-31T04:50:42;10.80;99.90
38866;DHT22;62686;48.984;8.394;2023-10-31T04:53:10;10.80;99.90
38866;DHT22;62686;48.984;8.394;2023-10-31T04:55:40;10.80;99.90
38866;DHT22;62686;48.984;8.394;2023-10-31T04:58:08;10.80;99.90
38866;DHT22;62686;48.984;8.394;2023-10-31T05:00:37;10.80;99.90
38866;DHT22;62686;48.984;8.394;2023-10-31T05:03:05;10.80;99.90
38866;DHT22;62686;48.984;8.394;2023-10-31T05:05:33;10.70;99.90
38866;DHT22;62686;48.984;8.394;2023-10-31T05:08:02;10.80;99.90
38866;DHT22;62686;48.984;8.394;2023-10-31T05:10:30;10.80;99.90
38866;DHT22;62686;48.984;8.394;2023-10-31T05:13:02;10.80;99.90
38866;DHT22;62686;48.984;8.394;2023-10-31T05:15:30;10.80;99.90
38866;DHT22;62686;48.984;8.394;2023-10-31T05:17:58;10.80;99.90
38866;DHT22;62686;48.984;8.394;2023-10-31T05:20:27;10.60;99.90
38866;DHT22;62686;48.984;8.394;2023-10-31T05:22:55;10.60;99.90
38866;DHT22;62686;48.984;8.394;2023-10-31T05:25:27;10.50;99.90
38866;DHT22;62686;48.984;8.394;2023-10-31T05:27:56;10.50;99.90
38866;DHT22;62686;48.984;8.394;2023-10-31T05:30:26;10.50;99.90
38866;DHT22;62686;48.984;8.394;2023-10-31T05:32:55;10.30;99.90
38866;DHT22;62686;48.984;8.394;2023-10-31T05:35:23;10.30;99.90
38866;DHT22;62686;48.984;8.394;2023-10-31T05:37:52;10.30;99.90
38866;DHT22;62686;48.984;8.394;2023-10-31T05:40:22;10.40;99.90
38866;DHT22;62686;48.984;8.394;2023-10-31T05:42:53;10.50;99.90
38866;DHT22;62686;48.984;8.394;2023-10-31T05:45:26;10.50;99.90
38866;DHT22;62686;48.984;8.394;2023-10-31T05:47:54;10.50;99.90
38866;DHT22;62686;48.984;8.394;2023-10-31T05:50:23;10.50;99.90
38866;DHT22;62686;48.984;8.394;2023-10-31T05:52:53;10.60;99.90
38866;DHT22;62686;48.984;8.394;2023-10-31T05:55:22;10.60;99.90
38866;DHT22;62686;48.984;8.394;2023-10-31T05:57:51;10.70;99.90
38866;DHT22;62686;48.984;8.394;2023-10-31T06:00:21;10.70;99.90
38866;DHT22;62686;48.984;8.394;2023-10-31T06:02:51;10.80;99.90
38866;DHT22;62686;48.984;8.394;2023-10-31T06:05:19;10.70;99.90
38866;DHT22;62686;48.984;8.394;2023-10-31T06:07:48;10.70;99.90
38866;DHT22;62686;48.984;8.394;2023-10-31T06:10:16;10.70;99.90
38866;DHT22;62686;48.984;8.394;2023-10-31T06:12:46;10.70;99.90
38866;DHT22;62686;48.984;8.394;2023-10-31T06:15:15;10.70;99.90
38866;DHT22;62686;48.984;8.394;2023-10-31T06:17:47;10.70;99.90
38866;DHT22;62686;48.984;8.394;2023-10-31T06:20:18;10.70;99.90
38866;DHT22;62686;48.984;8.394;2023-10-31T06:22:46;10.80;99.90
38866;DHT22;62686;48.984;8.394;2023-10-31T06:25:15;10.80;99.90
38866;DHT22;62686;48.984;8.394;2023-10-31T06:27:44;10.70;99.90
38866;DHT22;62686;48.984;8.394;2023-10-31T06:30:30;10.80;99.90
38866;DHT22;62686;48.984;8.394;2023-10-31T06:36:49;10.80;99.90
38866;DHT22;62686;48.984;8.394;2023-10-31T06:39:21;10.80;99.90
38866;DHT22;62686;48.984;8.394;2023-10-31T06:41:53;10.80;99.90
38866;DHT22;62686;48.984;8.394;2023-10-31T06:44:22;10.80;99.90
38866;DHT22;62686;48.984;8.394;2023-10-31T06:46:51;10.90;99.90
38866;DHT22;62686;48.984;8.394;2023-10-31T06:49:20;10.90;99.90
38866;DHT22;62686;48.984;8.394;2023-10-31T06:51:52;10.80;99.90
38866;DHT22;62686;48.984;8.394;2023-10-31T06:54:23;10.80;99.90
38866;DHT22;62686;48.984;8.394;2023-10-31T06:56:53;10.80;99.90
38866;DHT22;62686;48.984;8.394;2023-10-31T06:59:22;10.80;99.90
38866;DHT22;62686;48.984;8.394;2023-10-31T07:01:50;10.70;99.90
38866;DHT22;62686;48.984;8.394;2023-10-31T07:04:19;10.80;99.90
38866;DHT22;62686;48.984;8.394;2023-10-31T07:06:48;10.80;99.90
38866;DHT22;62686;48.984;8.394;2023-10-31T07:09:21;10.80;99.90
38866;DHT22;62686;48.984;8.394;2023-10-31T07:11:50;10.90;99.90
38866;DHT22;62686;48.984;8.394;2023-10-31T07:14:18;11.00;99.90
38866;DHT22;62686;48.984;8.394;2023-10-31T07:16:47;11.00;99.90
38866;DHT22;62686;48.984;8.394;2023-10-31T07:19:16;11.10;99.90
38866;DHT22;62686;48.984;8.394;2023-10-31T07:21:44;11.10;99.90
38866;DHT22;62686;48.984;8.394;2023-10-31T07:24:13;11.20;99.90
38866;DHT22;62686;48.984;8.394;2023-10-31T07:26:42;11.20;99.90
38866;DHT22;62686;48.984;8.394;2023-10-31T07:29:11;11.30;99.90
38866;DHT22;62686;48.984;8.394;2023-10-31T07:31:41;11.30;99.90
38866;DHT22;62686;48.984;8.394;2023-10-31T07:34:10;11.40;99.90
38866;DHT22;62686;48.984;8.394;2023-10-31T07:36:39;11.40;99.90
38866;DHT22;62686;48.984;8.394;2023-10-31T07:39:08;11.50;99.90
38866;DHT22;62686;48.984;8.394;2023-10-31T07:41:36;11.60;99.90
38866;DHT22;62686;48.984;8.394;2023-10-31T07:44:06;11.70;99.90
38866;DHT22;62686;48.984;8.394;2023-10-31T07:46:35;11.80;99.90
38866;DHT22;62686;48.984;8.394;2023-10-31T07:49:03;11.90;99.90
38866;DHT22;62686;48.984;8.394;2023-10-31T07:51:32;12.00;99.90
38866;DHT22;62686;48.984;8.394;2023-10-31T07:54:01;12.00;99.90
38866;DHT22;62686;48.984;8.394;2023-10-31T07:56:29;12.10;99.90
38866;DHT22;62686;48.984;8.394;2023-10-31T07:58:59;12.30;99.90
38866;DHT22;62686;48.984;8.394;2023-10-31T08:01:29;12.30;99.90
38866;DHT22;62686;48.984;8.394;2023-10-31T08:03:58;12.50;99.90
38866;DHT22;62686;48.984;8.394;2023-10-31T08:06:27;12.50;99.90
38866;DHT22;62686;48.984;8.394;2023-10-31T08:08:55;12.50;99.90
38866;DHT22;62686;48.984;8.394;2023-10-31T08:11:24;12.50;99.90
38866;DHT22;62686;48.984;8.394;2023-10-31T08:13:53;12.60;99.90
38866;DHT22;62686;48.984;8.394;2023-10-31T08:16:30;12.60;99.90
38866;DHT22;62686;48.984;8.394;2023-10-31T08:19:01;12.70;99.90
38866;DHT22;62686;48.984;8.394;2023-10-31T08:21:30;12.80;99.90
38866;DHT22;62686;48.984;8.394;2023-10-31T08:24:01;12.90;99.90
38866;DHT22;62686;48.984;8.394;2023-10-31T08:26:30;12.90;99.90
38866;DHT22;62686;48.984;8.394;2023-10-31T08:28:59;13.10;99.90
38866;DHT22;62686;48.984;8.394;2023-10-31T08:31:29;13.30;99.90
38866;DHT22;62686;48.984;8.394;2023-10-31T08:33:58;13.40;99.90
38866;DHT22;62686;48.984;8.394;2023-10-31T08:36:29;13.30;99.90
38866;DHT22;62686;48.984;8.394;2023-10-31T08:38:58;13.40;99.90
38866;DHT22;62686;48.984;8.394;2023-10-31T08:41:26;13.40;99.90
38866;DHT22;62686;48.984;8.394;2023-10-31T08:43:56;13.40;99.90
38866;DHT22;62686;48.984;8.394;2023-10-31T08:46:25;13.40;99.90
38866;DHT22;62686;48.984;8.394;2023-10-31T08:48:57;13.50;99.90
38866;DHT22;62686;48.984;8.394;2023-10-31T08:51:37;13.60;99.90
38866;DHT22;62686;48.984;8.394;2023-10-31T08:54:06;13.60;99.90
38866;DHT22;62686;48.984;8.394;2023-10-31T08:56:35;13.80;99.90
38866;DHT22;62686;48.984;8.394;2023-10-31T08:59:04;13.90;99.90
38866;DHT22;62686;48.984;8.394;2023-10-31T09:01:32;14.00;99.90
38866;DHT22;62686;48.984;8.394;2023-10-31T09:04:03;13.90;99.90
38866;DHT22;62686;48.984;8.394;2023-10-31T09:06:31;13.80;99.90
38866;DHT22;62686;48.984;8.394;2023-10-31T09:09:00;13.70;99.90
38866;DHT22;62686;48.984;8.394;2023-10-31T09:11:29;13.70;99.90
38866;DHT22;62686;48.984;8.394;2023-10-31T09:13:58;13.60;99.90
38866;DHT22;62686;48.984;8.394;2023-10-31T09:16:26;13.50;99.90
38866;DHT22;62686;48.984;8.394;2023-10-31T09:18:55;13.60;99.90
38866;DHT22;62686;48.984;8.394;2023-10-31T09:21:24;13.70;99.90
38866;DHT22;62686;48.984;8.394;2023-10-31T09:23:53;13.70;99.90
38866;DHT22;62686;48.984;8.394;2023-10-31T09:26:21;13.70;99.90
38866;DHT22;62686;48.984;8.394;2023-10-31T09:28:49;13.60;99.90
38866;DHT22;62686;48.984;8.394;2023-10-31T09:31:18;13.50;99.90
38866;DHT22;62686;48.984;8.394;2023-10-31T09:33:47;13.50;99.90
38866;DHT22;62686;48.984;8.394;2023-10-31T09:36:15;13.60;99.90
38866;DHT22;62686;48.984;8.394;2023-10-31T09:38:47;13.60;99.90
38866;DHT22;62686;48.984;8.394;2023-10-31T09:41:16;13.60;99.90
38866;DHT22;62686;48.984;8.394;2023-10-31T09:43:46;13.80;99.90
38866;DHT22;62686;48.984;8.394;2023-10-31T09:46:14;13.80;99.90
38866;DHT22;62686;48.984;8.394;2023-10-31T09:48:44;13.90;99.90
38866;DHT22;62686;48.984;8.394;2023-10-31T09:51:12;13.90;99.90
38866;DHT22;62686;48.984;8.394;2023-10-31T09:53:43;13.80;99.90
38866;DHT22;62686;48.984;8.394;2023-10-31T09:56:18;13.80;99.90
38866;DHT22;62686;48.984;8.394;2023-10-31T09:58:47;13.90;99.90
38866;DHT22;62686;48.984;8.394;2023-10-31T10:01:15;14.00;99.90
38866;DHT22;62686;48.984;8.394;2023-10-31T10:03:44;14.30;99.90
38866;DHT22;62686;48.984;8.394;2023-10-31T10:06:13;14.50;99.90
38866;DHT22;62686;48.984;8.394;2023-10-31T10:08:41;14.70;99.90
38866;DHT22;62686;48.984;8.394;2023-10-31T10:11:11;15.10;99.90
38866;DHT22;62686;48.984;8.394;2023-10-31T10:13:41;15.10;99.90
38866;DHT22;62686;48.984;8.394;2023-10-31T10:16:09;15.20;99.90
38866;DHT22;62686;48.984;8.394;2023-10-31T10:18:38;14.80;99.90
38866;DHT22;62686;48.984;8.394;2023-10-31T10:21:08;14.60;99.90
38866;DHT22;62686;48.984;8.394;2023-10-31T10:23:36;14.40;99.90
38866;DHT22;62686;48.984;8.394;2023-10-31T10:26:05;14.00;99.90
38866;DHT22;62686;48.984;8.394;2023-10-31T10:28:33;13.90;99.90
38866;DHT22;62686;48.984;8.394;2023-10-31T10:31:03;14.00;99.90
38866;DHT22;62686;48.984;8.394;2023-10-31T10:33:34;14.20;99.90
38866;DHT22;62686;48.984;8.394;2023-10-31T10:36:02;14.40;99.90
38866;DHT22;62686;48.984;8.394;2023-10-31T10:38:32;14.50;99.90
38866;DHT22;62686;48.984;8.394;2023-10-31T10:41:06;14.40;99.90
38866;DHT22;62686;48.984;8.394;2023-10-31T10:43:37;14.50;99.90
38866;DHT22;62686;48.984;8.394;2023-10-31T10:46:12;14.60;99.90
38866;DHT22;62686;48.984;8.394;2023-10-31T10:48:46;14.90;99.90
38866;DHT22;62686;48.984;8.394;2023-10-31T10:51:21;15.10;99.90
38866;DHT22;62686;48.984;8.394;2023-10-31T10:53:57;15.00;99.90
38866;DHT22;62686;48.984;8.394;2023-10-31T10:56:39;15.00;99.90
38866;DHT22;62686;48.984;8.394;2023-10-31T10:59:15;15.10;99.90
38866;DHT22;62686;48.984;8.394;2023-10-31T11:01:49;15.10;99.90
38866;DHT22;62686;48.984;8.394;2023-10-31T11:04:18;14.90;99.90
38866;DHT22;62686;48.984;8.394;2023-10-31T11:06:47;14.80;99.90
38866;DHT22;62686;48.984;8.394;2023-10-31T11:09:17;14.80;99.90
38866;DHT22;62686;48.984;8.394;2023-10-31T11:11:47;14.70;99.90
38866;DHT22;62686;48.984;8.394;2023-10-31T11:14:16;14.50;99.90
38866;DHT22;62686;48.984;8.394;2023-10-31T11:16:51;14.40;99.90
38866;DHT22;62686;48.984;8.394;2023-10-31T11:19:21;14.50;99.90
38866;DHT22;62686;48.984;8.394;2023-10-31T11:21:54;14.50;99.90
38866;DHT22;62686;48.984;8.394;2023-10-31T11:24:23;14.50;99.90
38866;DHT22;62686;48.984;8.394;2023-10-31T11:26:52;14.40;99.90
38866;DHT22;62686;48.984;8.394;2023-10-31T11:29:20;14.30;99.90
38866;DHT22;62686;48.984;8.394;2023-10-31T11:31:50;14.20;99.90
38866;DHT22;62686;48.984;8.394;2023-10-31T11:34:19;14.00;99.90
38866;DHT22;62686;48.984;8.394;2023-10-31T11:36:50;13.90;99.90
38866;DHT22;62686;48.984;8.394;2023-10-31T11:39:19;13.80;99.90
38866;DHT22;62686;48.984;8.394;2023-10-31T11:41:54;13.70;99.90
38866;DHT22;62686;48.984;8.394;2023-10-31T11:44:25;13.70;99.90
38866;DHT22;62686;48.984;8.394;2023-10-31T11:46:58;13.60;99.90
38866;DHT22;62686;48.984;8.394;2023-10-31T11:49:47;13.70;99.90
38866;DHT22;62686;48.984;8.394;2023-10-31T11:52:17;13.90;99.90
38866;DHT22;62686;48.984;8.394;2023-10-31T11:54:46;14.00;99.90
38866;DHT22;62686;48.984;8.394;2023-10-31T11:57:26;14.30;99.90
38866;DHT22;62686;48.984;8.394;2023-10-31T11:59:55;14.40;99.90
38866;DHT22;62686;48.984;8.394;2023-10-31T12:02:25;14.50;99.90
38866;DHT22;62686;48.984;8.394;2023-10-31T12:05:07;14.40;99.90
38866;DHT22;62686;48.984;8.394;2023-10-31T12:07:42;14.30;99.90
38866;DHT22;62686;48.984;8.394;2023-10-31T12:10:12;14.10;99.90
38866;DHT22;62686;48.984;8.394;2023-10-31T12:12:41;14.20;99.90
38866;DHT22;62686;48.984;8.394;2023-10-31T12:15:10;14.30;99.90
38866;DHT22;62686;48.984;8.394;2023-10-31T12:17:40;14.30;99.90
38866;DHT22;62686;48.984;8.394;2023-10-31T12:20:09;14.30;99.90
38866;DHT22;62686;48.984;8.394;2023-10-31T12:22:38;14.30;99.90
38866;DHT22;62686;48.984;8.394;2023-10-31T12:25:08;14.10;99.90
38866;DHT22;62686;48.984;8.394;2023-10-31T12:27:45;14.00;99.90
38866;DHT22;62686;48.984;8.394;2023-10-31T12:30:15;14.10;99.90
38866;DHT22;62686;48.984;8.394;2023-10-31T12:32:54;14.20;99.90
38866;DHT22;62686;48.984;8.394;2023-10-31T12:35:26;14.80;99.90
38866;DHT22;62686;48.984;8.394;2023-10-31T12:37:54;15.70;99.90
38866;DHT22;62686;48.984;8.394;2023-10-31T12:40:25;16.50;99.90
38866;DHT22;62686;48.984;8.394;2023-10-31T12:42:53;17.00;99.90
38866;DHT22;62686;48.984;8.394;2023-10-31T12:45:22;17.10;99.90
38866;DHT22;62686;48.984;8.394;2023-10-31T12:48:02;17.40;99.90
38866;DHT22;62686;48.984;8.394;2023-10-31T12:50:32;17.10;99.90
38866;DHT22;62686;48.984;8.394;2023-10-31T12:53:03;16.80;99.90
38866;DHT22;62686;48.984;8.394;2023-10-31T12:55:38;16.50;99.90
38866;DHT22;62686;48.984;8.394;2023-10-31T12:58:20;16.00;99.90
38866;DHT22;62686;48.984;8.394;2023-10-31T13:00:48;15.70;99.90
38866;DHT22;62686;48.984;8.394;2023-10-31T13:03:19;15.50;99.90
38866;DHT22;62686;48.984;8.394;2023-10-31T13:05:48;15.20;99.90
38866;DHT22;62686;48.984;8.394;2023-10-31T13:08:16;15.00;99.90
38866;DHT22;62686;48.984;8.394;2023-10-31T13:10:45;15.40;99.90
38866;DHT22;62686;48.984;8.394;2023-10-31T13:13:13;16.70;99.90
38866;DHT22;62686;48.984;8.394;2023-10-31T13:15:42;18.50;99.90
38866;DHT22;62686;48.984;8.394;2023-10-31T13:18:13;19.10;99.90
38866;DHT22;62686;48.984;8.394;2023-10-31T13:20:43;18.20;99.90
38866;DHT22;62686;48.984;8.394;2023-10-31T13:23:12;17.20;99.90
38866;DHT22;62686;48.984;8.394;2023-10-31T13:25:40;16.50;99.90
38866;DHT22;62686;48.984;8.394;2023-10-31T13:28:09;16.10;99.90
38866;DHT22;62686;48.984;8.394;2023-10-31T13:30:39;15.70;99.90
38866;DHT22;62686;48.984;8.394;2023-10-31T13:33:08;15.60;99.90
38866;DHT22;62686;48.984;8.394;2023-10-31T13:35:36;15.40;99.90
38866;DHT22;62686;48.984;8.394;2023-10-31T13:38:06;15.10;99.90
38866;DHT22;62686;48.984;8.394;2023-10-31T13:40:34;14.90;99.90
38866;DHT22;62686;48.984;8.394;2023-10-31T13:43:03;15.00;99.90
38866;DHT22;62686;48.984;8.394;2023-10-31T13:45:32;15.10;99.90
38866;DHT22;62686;48.984;8.394;2023-10-31T13:48:00;15.20;99.90
38866;DHT22;62686;48.984;8.394;2023-10-31T13:50:29;15.60;99.90
38866;DHT22;62686;48.984;8.394;2023-10-31T13:52:57;15.50;99.90
38866;DHT22;62686;48.984;8.394;2023-10-31T13:55:27;15.40;99.90
38866;DHT22;62686;48.984;8.394;2023-10-31T13:57:55;15.20;99.90
38866;DHT22;62686;48.984;8.394;2023-10-31T14:00:24;15.70;99.90
38866;DHT22;62686;48.984;8.394;2023-10-31T14:02:52;16.50;99.90
38866;DHT22;62686;48.984;8.394;2023-10-31T14:05:21;16.80;99.90
38866;DHT22;62686;48.984;8.394;2023-10-31T14:07:50;17.10;99.90
38866;DHT22;62686;48.984;8.394;2023-10-31T14:10:19;17.20;99.90
38866;DHT22;62686;48.984;8.394;2023-10-31T14:12:49;16.90;99.90
38866;DHT22;62686;48.984;8.394;2023-10-31T14:15:19;16.50;99.90
38866;DHT22;62686;48.984;8.394;2023-10-31T14:17:51;16.40;99.90
38866;DHT22;62686;48.984;8.394;2023-10-31T14:20:21;16.20;99.90
38866;DHT22;62686;48.984;8.394;2023-10-31T14:22:50;16.20;99.90
38866;DHT22;62686;48.984;8.394;2023-10-31T14:25:21;16.20;99.90
38866;DHT22;62686;48.984;8.394;2023-10-31T14:27:51;16.00;99.90
38866;DHT22;62686;48.984;8.394;2023-10-31T14:30:19;15.60;99.90
38866;DHT22;62686;48.984;8.394;2023-10-31T14:32:47;15.40;99.90
38866;DHT22;62686;48.984;8.394;2023-10-31T14:35:16;15.20;99.90
38866;DHT22;62686;48.984;8.394;2023-10-31T14:37:44;15.00;99.90
38866;DHT22;62686;48.984;8.394;2023-10-31T14:40:13;14.70;99.90
38866;DHT22;62686;48.984;8.394;2023-10-31T14:42:41;14.50;99.90
38866;DHT22;62686;48.984;8.394;2023-10-31T14:45:11;14.20;99.90
38866;DHT22;62686;48.984;8.394;2023-10-31T14:47:40;14.10;99.90
38866;DHT22;62686;48.984;8.394;2023-10-31T14:50:09;13.90;99.90
38866;DHT22;62686;48.984;8.394;2023-10-31T14:52:37;13.70;99.90
38866;DHT22;62686;48.984;8.394;2023-10-31T14:55:08;13.60;99.90
38866;DHT22;62686;48.984;8.394;2023-10-31T14:57:36;13.50;99.90
38866;DHT22;62686;48.984;8.394;2023-10-31T15:00:07;13.40;99.90
38866;DHT22;62686;48.984;8.394;2023-10-31T15:02:40;13.30;99.90
38866;DHT22;62686;48.984;8.394;2023-10-31T15:05:08;13.30;99.90
38866;DHT22;62686;48.984;8.394;2023-10-31T15:07:37;13.20;99.90
38866;DHT22;62686;48.984;8.394;2023-10-31T15:10:08;13.10;99.90
38866;DHT22;62686;48.984;8.394;2023-10-31T15:12:36;13.00;99.90
38866;DHT22;62686;48.984;8.394;2023-10-31T15:15:06;13.00;99.90
38866;DHT22;62686;48.984;8.394;2023-10-31T15:17:34;13.00;99.90
38866;DHT22;62686;48.984;8.394;2023-10-31T15:20:06;13.00;99.90
38866;DHT22;62686;48.984;8.394;2023-10-31T15:22:36;13.10;99.90
38866;DHT22;62686;48.984;8.394;2023-10-31T15:25:05;13.20;99.90
38866;DHT22;62686;48.984;8.394;2023-10-31T15:27:35;13.10;99.90
38866;DHT22;62686;48.984;8.394;2023-10-31T15:30:06;13.10;99.90
38866;DHT22;62686;48.984;8.394;2023-10-31T15:32:35;13.10;99.90
38866;DHT22;62686;48.984;8.394;2023-10-31T15:35:06;13.10;99.90
38866;DHT22;62686;48.984;8.394;2023-10-31T15:37:35;13.00;99.90
38866;DHT22;62686;48.984;8.394;2023-10-31T15:40:06;13.10;99.90
38866;DHT22;62686;48.984;8.394;2023-10-31T15:42:35;13.10;99.90
38866;DHT22;62686;48.984;8.394;2023-10-31T15:45:04;13.20;99.90
38866;DHT22;62686;48.984;8.394;2023-10-31T15:47:34;13.10;99.90
38866;DHT22;62686;48.984;8.394;2023-10-31T15:50:02;13.10;99.90
38866;DHT22;62686;48.984;8.394;2023-10-31T15:52:33;13.10;99.90